sensor_id;sensor_type;location;lat;lon;timestamp;pressure;altitude;pressure_sealevel;temperature;humidity
30021;BME280;16861;52.294;7.760;2023-05-01T00:02:01;100084.13;;;12.57;44.46
30021;BME280;16861;52.294;7.760;2023-05-01T00:04:27;100082.31;;;12.58;44.65
30021;BME280;16861;52.294;7.760;2023-05-01T00:06:54;100076.06;;;12.59;44.45
30021;BME280;16861;52.294;7.760;2023-05-01T00:09:20;100081.28;;;12.60;44.47
30021;BME280;16861;52.294;7.760;2023-05-01T00:11:47;100075.91;;;12.62;44.62
30021;BME280;16861;52.294;7.760;2023-05-01T00:14:13;100078.47;;;12.63;44.77
30021;BME280;16861;52.294;7.760;2023-05-01T00:16:40;100070.44;;;12.65;44.55
30021;BME280;16861;52.294;7.760;2023-05-01T00:19:07;100062.53;;;12.65;44.23
30021;BME280;16861;52.294;7.760;2023-05-01T00:21:33;100060.72;;;12.66;43.95
30021;BME280;16861;52.294;7.760;2023-05-01T00:24:00;100060.72;;;12.66;43.93
30021;BME280;16861;52.294;7.760;2023-05-01T00:26:27;100051.00;;;12.66;43.95
30021;BME280;16861;52.294;7.760;2023-05-01T00:28:56;100054.50;;;12.67;43.88
30021;BME280;16861;52.294;7.760;2023-05-01T00:31:23;100057.16;;;12.67;44.11
30021;BME280;16861;52.294;7.760;2023-05-01T00:33:51;100049.22;;;12.67;43.95
30021;BME280;16861;52.294;7.760;2023-05-01T00:36:18;100048.38;;;12.66;43.58
30021;BME280;16861;52.294;7.760;2023-05-01T00:38:44;100049.22;;;12.67;43.74
30021;BME280;16861;52.294;7.760;2023-05-01T00:41:11;100043.00;;;12.68;43.69
30021;BME280;16861;52.294;7.760;2023-05-01T00:43:38;100035.94;;;12.68;43.45
30021;BME280;16861;52.294;7.760;2023-05-01T00:46:04;100038.56;;;12.68;43.38
30021;BME280;16861;52.294;7.760;2023-05-01T00:48:31;100028.84;;;12.69;43.15
30021;BME280;16861;52.294;7.760;2023-05-01T00:50:59;100029.78;;;12.68;43.45
30021;BME280;16861;52.294;7.760;2023-05-01T00:53:26;100028.84;;;12.69;43.41
30021;BME280;16861;52.294;7.760;2023-05-01T00:55:54;100019.22;;;12.68;43.23
30021;BME280;16861;52.294;7.760;2023-05-01T00:58:22;100014.81;;;12.68;43.29
30021;BME280;16861;52.294;7.760;2023-05-01T01:00:49;100010.44;;;12.67;43.17
30021;BME280;16861;52.294;7.760;2023-05-01T01:03:15;100013.16;;;12.66;43.30
30021;BME280;16861;52.294;7.760;2023-05-01T01:05:52;100008.09;;;12.62;43.64
30021;BME280;16861;52.294;7.760;2023-05-01T01:09:08;99995.06;;;12.59;43.33
30021;BME280;16861;52.294;7.760;2023-05-01T01:16:20;99983.75;;;12.43;43.04
30021;BME280;16861;52.294;7.760;2023-05-01T01:18:57;99986.47;;;12.41;43.56
30021;BME280;16861;52.294;7.760;2023-05-01T01:21:30;99979.59;;;12.38;43.46
30021;BME280;16861;52.294;7.760;2023-05-01T01:24:02;99982.25;;;12.38;43.19
30021;BME280;16861;52.294;7.760;2023-05-01T01:29:26;99972.91;;;12.33;43.13
30021;BME280;16861;52.294;7.760;2023-05-01T01:32:24;99975.75;;;12.30;43.10
30021;BME280;16861;52.294;7.760;2023-05-01T01:35:05;99974.06;;;12.29;43.09
30021;BME280;16861;52.294;7.760;2023-05-01T01:37:47;99966.41;;;12.24;42.99
30021;BME280;16861;52.294;7.760;2023-05-01T01:40:18;99966.41;;;12.24;43.18
30021;BME280;16861;52.294;7.760;2023-05-01T01:42:55;99967.44;;;12.21;43.20
30021;BME280;16861;52.294;7.760;2023-05-01T01:45:49;99963.22;;;12.19;43.07
30021;BME280;16861;52.294;7.760;2023-05-01T01:48:24;99963.00;;;12.22;43.25
30021;BME280;16861;52.294;7.760;2023-05-01T01:50:53;99949.81;;;12.22;43.17
30021;BME280;16861;52.294;7.760;2023-05-01T01:53:24;99948.13;;;12.21;43.50
30021;BME280;16861;52.294;7.760;2023-05-01T01:55:53;99948.13;;;12.21;43.04
30021;BME280;16861;52.294;7.760;2023-05-01T02:00:49;99940.19;;;12.21;43.01
30021;BME280;16861;52.294;7.760;2023-05-01T02:03:16;99943.69;;;12.21;43.01
30021;BME280;16861;52.294;7.760;2023-05-01T02:05:45;99935.78;;;12.21;43.17
30021;BME280;16861;52.294;7.760;2023-05-01T02:08:13;99934.81;;;12.22;42.77
30021;BME280;16861;52.294;7.760;2023-05-01T02:10:40;99936.53;;;12.23;42.69
30021;BME280;16861;52.294;7.760;2023-05-01T02:13:09;99925.97;;;12.23;42.50
30021;BME280;16861;52.294;7.760;2023-05-01T02:15:39;99926.06;;;12.22;42.82
30021;BME280;16861;52.294;7.760;2023-05-01T02:18:07;99927.78;;;12.23;43.02
30021;BME280;16861;52.294;7.760;2023-05-01T02:20:35;99924.38;;;12.21;42.69
30021;BME280;16861;52.294;7.760;2023-05-01T02:23:03;99921.72;;;12.21;42.91
30021;BME280;16861;52.294;7.760;2023-05-01T02:25:34;99920.91;;;12.20;43.08
30021;BME280;16861;52.294;7.760;2023-05-01T02:28:08;99920.22;;;12.17;43.08
30021;BME280;16861;52.294;7.760;2023-05-01T02:30:38;99917.47;;;12.18;42.80
30021;BME280;16861;52.294;7.760;2023-05-01T02:33:07;99911.56;;;12.15;43.02
30021;BME280;16861;52.294;7.760;2023-05-01T02:35:41;99908.16;;;12.12;43.40
30021;BME280;16861;52.294;7.760;2023-05-01T02:38:10;99908.91;;;12.15;42.80
30021;BME280;16861;52.294;7.760;2023-05-01T02:40:38;99894.94;;;12.12;43.00
30021;BME280;16861;52.294;7.760;2023-05-01T02:43:09;99890.72;;;12.10;43.50
30021;BME280;16861;52.294;7.760;2023-05-01T02:45:39;99897.81;;;12.09;43.39
30021;BME280;16861;52.294;7.760;2023-05-01T02:48:08;99885.66;;;12.07;43.26
30021;BME280;16861;52.294;7.760;2023-05-01T02:50:36;99882.16;;;12.06;43.30
30021;BME280;16861;52.294;7.760;2023-05-01T02:53:06;99881.34;;;12.04;43.19
30021;BME280;16861;52.294;7.760;2023-05-01T02:55:34;99879.56;;;12.05;43.57
30021;BME280;16861;52.294;7.760;2023-05-01T02:58:00;99867.31;;;12.04;43.46
30021;BME280;16861;52.294;7.760;2023-05-01T03:00:27;99868.16;;;12.04;43.47
30021;BME280;16861;52.294;7.760;2023-05-01T03:02:55;99865.53;;;12.04;43.63
30021;BME280;16861;52.294;7.760;2023-05-01T03:05:21;99863.69;;;12.06;43.60
30021;BME280;16861;52.294;7.760;2023-05-01T03:07:48;99861.09;;;12.05;43.57
30021;BME280;16861;52.294;7.760;2023-05-01T03:10:14;99862.81;;;12.06;43.53
30021;BME280;16861;52.294;7.760;2023-05-01T03:12:40;99854.91;;;12.06;43.68
30021;BME280;16861;52.294;7.760;2023-05-01T03:15:07;99857.53;;;12.06;44.00
30021;BME280;16861;52.294;7.760;2023-05-01T03:17:34;99843.53;;;12.05;43.90
30021;BME280;16861;52.294;7.760;2023-05-01T03:20:00;99845.28;;;12.05;44.15
30021;BME280;16861;52.294;7.760;2023-05-01T03:22:28;99844.34;;;12.06;44.00
30021;BME280;16861;52.294;7.760;2023-05-01T03:24:54;99838.25;;;12.05;43.81
30021;BME280;16861;52.294;7.760;2023-05-01T03:27:21;99840.00;;;12.05;43.76
30021;BME280;16861;52.294;7.760;2023-05-01T03:29:47;99833.84;;;12.04;43.99
30021;BME280;16861;52.294;7.760;2023-05-01T03:32:14;99826.06;;;12.03;43.72
30021;BME280;16861;52.294;7.760;2023-05-01T03:34:43;99833.03;;;12.04;43.91
30021;BME280;16861;52.294;7.760;2023-05-01T03:37:10;99826.06;;;12.03;43.96
30021;BME280;16861;52.294;7.760;2023-05-01T03:39:37;99826.88;;;12.03;43.92
30021;BME280;16861;52.294;7.760;2023-05-01T03:42:03;99818.97;;;12.03;43.94
30021;BME280;16861;52.294;7.760;2023-05-01T03:44:30;99817.28;;;12.02;44.14
30021;BME280;16861;52.294;7.760;2023-05-01T03:46:57;99817.38;;;12.01;44.17
30021;BME280;16861;52.294;7.760;2023-05-01T03:49:24;99819.06;;;12.02;44.22
30021;BME280;16861;52.294;7.760;2023-05-01T03:51:50;99812.09;;;12.01;44.16
30021;BME280;16861;52.294;7.760;2023-05-01T03:54:17;99813.06;;;11.99;44.17
30021;BME280;16861;52.294;7.760;2023-05-01T03:56:43;99811.25;;;12.00;44.16
30021;BME280;16861;52.294;7.760;2023-05-01T03:59:09;99800.81;;;11.98;44.18
30021;BME280;16861;52.294;7.760;2023-05-01T04:01:36;99805.13;;;11.99;43.86
30021;BME280;16861;52.294;7.760;2023-05-01T04:04:03;99793.81;;;11.97;43.94
30021;BME280;16861;52.294;7.760;2023-05-01T04:06:30;99794.69;;;11.98;44.05
30021;BME280;16861;52.294;7.760;2023-05-01T04:08:56;99794.69;;;11.98;44.16
30021;BME280;16861;52.294;7.760;2023-05-01T04:11:23;99794.69;;;11.98;43.88
30021;BME280;16861;52.294;7.760;2023-05-01T04:13:49;99788.53;;;11.97;44.01
30021;BME280;16861;52.294;7.760;2023-05-01T04:16:15;99795.53;;;11.98;43.97
30021;BME280;16861;52.294;7.760;2023-05-01T04:18:43;99791.09;;;11.99;44.28
30021;BME280;16861;52.294;7.760;2023-05-01T04:21:09;99791.84;;;12.01;44.05
30021;BME280;16861;52.294;7.760;2023-05-01T04:23:36;99797.13;;;12.01;44.45
30021;BME280;16861;52.294;7.760;2023-05-01T04:26:02;99787.31;;;12.03;44.40
30021;BME280;16861;52.294;7.760;2023-05-01T04:28:29;99790.75;;;12.05;44.29
30021;BME280;16861;52.294;7.760;2023-05-01T04:30:57;99792.44;;;12.06;44.21
30021;BME280;16861;52.294;7.760;2023-05-01T04:33:23;99783.66;;;12.06;44.12
30021;BME280;16861;52.294;7.760;2023-05-01T04:35:49;99784.34;;;12.09;44.04
30021;BME280;16861;52.294;7.760;2023-05-01T04:38:19;99788.66;;;12.10;44.30
30021;BME280;16861;52.294;7.760;2023-05-01T04:40:45;99789.41;;;12.12;44.11
30021;BME280;16861;52.294;7.760;2023-05-01T04:43:11;99782.25;;;12.15;44.06
30021;BME280;16861;52.294;7.760;2023-05-01T04:45:38;99783.84;;;12.17;44.32
30021;BME280;16861;52.294;7.760;2023-05-01T04:48:05;99781.03;;;12.20;43.96
30021;BME280;16861;52.294;7.760;2023-05-01T04:50:31;99773.75;;;12.24;44.08
30021;BME280;16861;52.294;7.760;2023-05-01T04:52:58;99778.75;;;12.29;44.30
30021;BME280;16861;52.294;7.760;2023-05-01T04:55:24;99777.69;;;12.31;43.88
30021;BME280;16861;52.294;7.760;2023-05-01T04:57:51;99770.41;;;12.35;44.14
30021;BME280;16861;52.294;7.760;2023-05-01T05:00:17;99775.41;;;12.40;43.98
30021;BME280;16861;52.294;7.760;2023-05-01T05:02:45;99778.69;;;12.43;43.91
30021;BME280;16861;52.294;7.760;2023-05-01T05:05:11;99780.09;;;12.49;44.23
30021;BME280;16861;52.294;7.760;2023-05-01T05:07:38;99769.31;;;12.52;44.87
30021;BME280;16861;52.294;7.760;2023-05-01T05:10:04;99773.34;;;12.58;44.55
30021;BME280;16861;52.294;7.760;2023-05-01T05:12:31;99781.00;;;12.62;44.23
30021;BME280;16861;52.294;7.760;2023-05-01T05:14:57;99770.22;;;12.66;44.01
30021;BME280;16861;52.294;7.760;2023-05-01T05:17:23;99774.34;;;12.70;44.12
30021;BME280;16861;52.294;7.760;2023-05-01T05:19:50;99773.19;;;12.74;44.06
30021;BME280;16861;52.294;7.760;2023-05-01T05:22:17;99769.41;;;12.78;44.04
30021;BME280;16861;52.294;7.760;2023-05-01T05:24:43;99777.13;;;12.81;43.61
30021;BME280;16861;52.294;7.760;2023-05-01T05:27:10;99775.88;;;12.87;43.77
30021;BME280;16861;52.294;7.760;2023-05-01T05:29:36;99774.63;;;12.93;43.90
30021;BME280;16861;52.294;7.760;2023-05-01T05:32:03;99779.69;;;12.96;43.64
30021;BME280;16861;52.294;7.760;2023-05-01T05:34:29;99776.66;;;13.02;43.41
30021;BME280;16861;52.294;7.760;2023-05-01T05:36:56;99780.78;;;13.06;43.55
30021;BME280;16861;52.294;7.760;2023-05-01T05:39:22;99776.91;;;13.12;43.80
30021;BME280;16861;52.294;7.760;2023-05-01T05:41:49;99774.78;;;13.17;43.49
30021;BME280;16861;52.294;7.760;2023-05-01T05:44:15;99780.50;;;13.24;43.63
30021;BME280;16861;52.294;7.760;2023-05-01T05:46:42;99771.31;;;13.29;43.49
30021;BME280;16861;52.294;7.760;2023-05-01T05:49:08;99776.16;;;13.36;43.88
30021;BME280;16861;52.294;7.760;2023-05-01T05:51:35;99781.97;;;13.41;44.12
30021;BME280;16861;52.294;7.760;2023-05-01T05:54:01;99778.94;;;13.47;43.57
30021;BME280;16861;52.294;7.760;2023-05-01T05:56:27;99782.22;;;13.51;43.55
30021;BME280;16861;52.294;7.760;2023-05-01T05:58:54;99774.81;;;13.56;43.61
30021;BME280;16861;52.294;7.760;2023-05-01T06:01:20;99780.75;;;13.60;43.95
30021;BME280;16861;52.294;7.760;2023-05-01T06:03:47;99768.16;;;13.63;43.71
30021;BME280;16861;52.294;7.760;2023-05-01T06:06:13;99770.47;;;13.68;43.50
30021;BME280;16861;52.294;7.760;2023-05-01T06:08:40;99766.78;;;13.71;43.62
30021;BME280;16861;52.294;7.760;2023-05-01T06:11:07;99765.47;;;13.76;43.56
30021;BME280;16861;52.294;7.760;2023-05-01T06:13:34;99767.81;;;13.81;43.18
30021;BME280;16861;52.294;7.760;2023-05-01T06:16:00;99769.28;;;13.85;43.32
30021;BME280;16861;52.294;7.760;2023-05-01T06:18:27;99766.44;;;13.88;43.53
30021;BME280;16861;52.294;7.760;2023-05-01T06:20:55;99760.81;;;13.93;43.35
30021;BME280;16861;52.294;7.760;2023-05-01T06:23:21;99762.28;;;13.97;43.28
30021;BME280;16861;52.294;7.760;2023-05-01T06:25:48;99762.78;;;14.02;43.47
30021;BME280;16861;52.294;7.760;2023-05-01T06:28:14;99760.78;;;14.06;43.33
30021;BME280;16861;52.294;7.760;2023-05-01T06:30:41;99757.69;;;14.12;43.22
30021;BME280;16861;52.294;7.760;2023-05-01T06:33:07;99755.53;;;14.17;42.66
30021;BME280;16861;52.294;7.760;2023-05-01T06:35:38;99759.56;;;14.23;43.21
30021;BME280;16861;52.294;7.760;2023-05-01T06:38:05;99763.47;;;14.30;43.08
30021;BME280;16861;52.294;7.760;2023-05-01T06:40:31;99758.66;;;14.36;43.20
30021;BME280;16861;52.294;7.760;2023-05-01T06:43:01;99767.72;;;14.44;42.89
30021;BME280;16861;52.294;7.760;2023-05-01T06:45:28;99764.53;;;14.52;43.03
30021;BME280;16861;52.294;7.760;2023-05-01T06:47:54;99757.81;;;14.59;42.71
30021;BME280;16861;52.294;7.760;2023-05-01T06:50:21;99759.91;;;14.67;42.46
30021;BME280;16861;52.294;7.760;2023-05-01T06:52:47;99755.63;;;14.78;42.60
30021;BME280;16861;52.294;7.760;2023-05-01T06:55:14;99762.78;;;14.89;42.58
30021;BME280;16861;52.294;7.760;2023-05-01T06:57:40;99758.47;;;14.99;42.71
30021;BME280;16861;52.294;7.760;2023-05-01T07:00:08;99753.31;;;15.09;42.63
30021;BME280;16861;52.294;7.760;2023-05-01T07:02:36;99753.47;;;15.19;42.71
30021;BME280;16861;52.294;7.760;2023-05-01T07:05:03;99758.91;;;15.29;42.28
30021;BME280;16861;52.294;7.760;2023-05-01T07:07:30;99756.50;;;15.37;42.04
30021;BME280;16861;52.294;7.760;2023-05-01T07:09:57;99754.94;;;15.46;42.27
30021;BME280;16861;52.294;7.760;2023-05-01T07:12:24;99756.03;;;15.55;42.33
30021;BME280;16861;52.294;7.760;2023-05-01T07:14:50;99750.84;;;15.64;42.57
30021;BME280;16861;52.294;7.760;2023-05-01T07:17:16;99751.06;;;15.73;42.17
30021;BME280;16861;52.294;7.760;2023-05-01T07:19:43;99749.53;;;15.82;42.08
30021;BME280;16861;52.294;7.760;2023-05-01T07:22:09;99748.78;;;15.91;41.60
30021;BME280;16861;52.294;7.760;2023-05-01T07:24:35;99750.84;;;15.99;41.35
30021;BME280;16861;52.294;7.760;2023-05-01T07:27:02;99754.81;;;16.05;41.99
30021;BME280;16861;52.294;7.760;2023-05-01T07:29:28;99752.28;;;16.14;41.57
30021;BME280;16861;52.294;7.760;2023-05-01T07:31:55;99749.97;;;16.21;41.95
30021;BME280;16861;52.294;7.760;2023-05-01T07:34:21;99747.78;;;16.26;41.50
30021;BME280;16861;52.294;7.760;2023-05-01T07:36:47;99745.59;;;16.32;41.76
30021;BME280;16861;52.294;7.760;2023-05-01T07:39:14;99750.53;;;16.36;41.34
30021;BME280;16861;52.294;7.760;2023-05-01T07:41:40;99746.53;;;16.42;41.64
30021;BME280;16861;52.294;7.760;2023-05-01T07:44:06;99744.34;;;16.47;42.16
30021;BME280;16861;52.294;7.760;2023-05-01T07:46:33;99750.97;;;16.53;41.84
30021;BME280;16861;52.294;7.760;2023-05-01T07:49:01;99746.00;;;16.60;42.13
30021;BME280;16861;52.294;7.760;2023-05-01T07:51:27;99752.34;;;16.68;42.05
30021;BME280;16861;52.294;7.760;2023-05-01T07:53:54;99748.09;;;16.77;42.14
30021;BME280;16861;52.294;7.760;2023-05-01T07:56:20;99746.34;;;16.88;42.54
30021;BME280;16861;52.294;7.760;2023-05-01T08:01:22;99752.41;;;17.11;41.49
30021;BME280;16861;52.294;7.760;2023-05-01T08:03:49;99747.97;;;17.22;41.50
30021;BME280;16861;52.294;7.760;2023-05-01T08:06:16;99745.66;;;17.28;41.14
30021;BME280;16861;52.294;7.760;2023-05-01T08:08:43;99742.34;;;17.36;41.18
30021;BME280;16861;52.294;7.760;2023-05-01T08:11:10;99742.53;;;17.44;41.43
30021;BME280;16861;52.294;7.760;2023-05-01T08:13:37;99737.38;;;17.53;41.24
30021;BME280;16861;52.294;7.760;2023-05-01T08:16:04;99735.72;;;17.62;42.01
30021;BME280;16861;52.294;7.760;2023-05-01T08:18:30;99742.75;;;17.73;41.84
30021;BME280;16861;52.294;7.760;2023-05-01T08:20:57;99743.50;;;17.84;41.50
30021;BME280;16861;52.294;7.760;2023-05-01T08:23:23;99745.22;;;17.95;41.32
30021;BME280;16861;52.294;7.760;2023-05-01T08:25:51;99746.94;;;18.06;41.43
30021;BME280;16861;52.294;7.760;2023-05-01T08:28:18;99738.31;;;18.14;41.37
30021;BME280;16861;52.294;7.760;2023-05-01T08:30:47;99742.81;;;18.23;41.47
30021;BME280;16861;52.294;7.760;2023-05-01T08:33:17;99742.97;;;18.32;40.87
30021;BME280;16861;52.294;7.760;2023-05-01T08:35:44;99741.25;;;18.41;40.90
30021;BME280;16861;52.294;7.760;2023-05-01T08:38:11;99746.59;;;18.51;40.64
30021;BME280;16861;52.294;7.760;2023-05-01T08:40:38;99741.41;;;18.59;40.19
30021;BME280;16861;52.294;7.760;2023-05-01T08:43:06;99738.91;;;18.67;39.76
30021;BME280;16861;52.294;7.760;2023-05-01T08:45:33;99729.63;;;18.71;39.95
30021;BME280;16861;52.294;7.760;2023-05-01T08:48:06;99733.56;;;18.77;39.79
30021;BME280;16861;52.294;7.760;2023-05-01T08:50:38;99728.38;;;18.85;39.84
30021;BME280;16861;52.294;7.760;2023-05-01T08:53:05;99726.66;;;18.94;40.09
30021;BME280;16861;52.294;7.760;2023-05-01T08:55:33;99729.59;;;19.01;40.00
30021;BME280;16861;52.294;7.760;2023-05-01T08:58:01;99730.59;;;19.10;40.25
30021;BME280;16861;52.294;7.760;2023-05-01T09:00:30;99730.72;;;19.18;39.81
30021;BME280;16861;52.294;7.760;2023-05-01T09:03:00;99735.47;;;19.24;40.20
30021;BME280;16861;52.294;7.760;2023-05-01T09:05:30;99735.06;;;19.29;40.09
30021;BME280;16861;52.294;7.760;2023-05-01T09:07:58;99729.25;;;19.34;40.11
30021;BME280;16861;52.294;7.760;2023-05-01T09:10:26;99728.13;;;19.36;39.37
30021;BME280;16861;52.294;7.760;2023-05-01T09:12:56;99723.50;;;19.38;38.74
30021;BME280;16861;52.294;7.760;2023-05-01T09:15:27;99718.28;;;19.47;38.90
30021;BME280;16861;52.294;7.760;2023-05-01T09:17:54;99715.84;;;19.53;38.58
30021;BME280;16861;52.294;7.760;2023-05-01T09:20:21;99714.25;;;19.61;38.77
30021;BME280;16861;52.294;7.760;2023-05-01T09:22:49;99710.88;;;19.69;38.70
30021;BME280;16861;52.294;7.760;2023-05-01T09:25:15;99706.31;;;19.79;38.71
30021;BME280;16861;52.294;7.760;2023-05-01T09:27:43;99709.91;;;19.88;39.25
30021;BME280;16861;52.294;7.760;2023-05-01T09:30:29;99708.47;;;19.93;38.86
30021;BME280;16861;52.294;7.760;2023-05-01T09:33:11;99708.69;;;20.10;38.63
30021;BME280;16861;52.294;7.760;2023-05-01T09:35:54;99697.16;;;20.28;38.50
30021;BME280;16861;52.294;7.760;2023-05-01T09:38:25;99709.69;;;20.46;38.26
30021;BME280;16861;52.294;7.760;2023-05-01T09:40:55;99695.09;;;20.58;38.25
30021;BME280;16861;52.294;7.760;2023-05-01T09:43:26;99697.13;;;20.64;37.76
30021;BME280;16861;52.294;7.760;2023-05-01T09:46:07;99697.38;;;20.71;38.00
30021;BME280;16861;52.294;7.760;2023-05-01T09:48:37;99701.63;;;20.82;37.80
30021;BME280;16861;52.294;7.760;2023-05-01T09:51:30;99692.75;;;20.81;38.54
30021;BME280;16861;52.294;7.760;2023-05-01T09:53:59;99689.88;;;20.93;38.11
30021;BME280;16861;52.294;7.760;2023-05-01T09:56:27;99698.25;;;20.98;37.54
30021;BME280;16861;52.294;7.760;2023-05-01T09:58:54;99701.16;;;21.05;37.07
30021;BME280;16861;52.294;7.760;2023-05-01T10:01:42;99685.75;;;21.07;37.93
30021;BME280;16861;52.294;7.760;2023-05-01T10:04:09;99692.53;;;21.19;37.95
30021;BME280;16861;52.294;7.760;2023-05-01T10:06:36;99682.03;;;21.26;37.73
30021;BME280;16861;52.294;7.760;2023-05-01T10:09:04;99692.78;;;21.34;37.86
30021;BME280;16861;52.294;7.760;2023-05-01T10:11:49;99685.09;;;21.40;36.87
30021;BME280;16861;52.294;7.760;2023-05-01T10:14:17;99702.41;;;21.54;38.52
30021;BME280;16861;52.294;7.760;2023-05-01T10:16:45;99688.34;;;21.60;38.14
30021;BME280;16861;52.294;7.760;2023-05-01T10:19:13;99691.41;;;21.65;37.70
30021;BME280;16861;52.294;7.760;2023-05-01T10:21:41;99682.88;;;21.70;38.02
30021;BME280;16861;52.294;7.760;2023-05-01T10:24:08;99690.13;;;21.78;37.61
30021;BME280;16861;52.294;7.760;2023-05-01T10:26:35;99692.00;;;21.85;37.73
30021;BME280;16861;52.294;7.760;2023-05-01T10:29:03;99686.84;;;21.92;37.16
30021;BME280;16861;52.294;7.760;2023-05-01T10:31:30;99688.84;;;21.98;37.06
30021;BME280;16861;52.294;7.760;2023-05-01T10:33:58;99689.19;;;22.04;37.31
30021;BME280;16861;52.294;7.760;2023-05-01T10:36:36;99686.03;;;22.08;35.79
30021;BME280;16861;52.294;7.760;2023-05-01T10:39:04;99685.88;;;22.18;37.08
30021;BME280;16861;52.294;7.760;2023-05-01T10:44:25;99687.25;;;22.39;37.66
30021;BME280;16861;52.294;7.760;2023-05-01T10:46:53;99684.06;;;22.52;37.46
30021;BME280;16861;52.294;7.760;2023-05-01T10:49:20;99676.03;;;22.69;37.73
30021;BME280;16861;52.294;7.760;2023-05-01T10:56:50;99675.25;;;23.73;37.76
30021;BME280;16861;52.294;7.760;2023-05-01T10:59:16;99668.94;;;24.21;37.69
30021;BME280;16861;52.294;7.760;2023-05-01T11:01:44;99669.75;;;24.68;36.58
30021;BME280;16861;52.294;7.760;2023-05-01T11:12:08;99653.59;;;26.61;34.31
30021;BME280;16861;52.294;7.760;2023-05-01T11:22:34;99645.59;;;28.82;31.67
30021;BME280;16861;52.294;7.760;2023-05-01T11:25:03;99644.28;;;29.25;30.17
30021;BME280;16861;52.294;7.760;2023-05-01T11:27:30;99639.78;;;29.65;29.86
30021;BME280;16861;52.294;7.760;2023-05-01T11:30:00;99636.63;;;30.00;29.24
30021;BME280;16861;52.294;7.760;2023-05-01T11:32:27;99641.84;;;30.34;28.69
30021;BME280;16861;52.294;7.760;2023-05-01T11:34:55;99638.22;;;30.66;28.75
30021;BME280;16861;52.294;7.760;2023-05-01T11:37:42;99634.44;;;30.92;29.40
30021;BME280;16861;52.294;7.760;2023-05-01T11:40:29;99627.00;;;31.18;29.08
30021;BME280;16861;52.294;7.760;2023-05-01T11:45:27;99622.94;;;31.28;27.28
30021;BME280;16861;52.294;7.760;2023-05-01T11:47:54;99621.34;;;31.20;27.10
30021;BME280;16861;52.294;7.760;2023-05-01T11:50:21;99619.34;;;31.15;26.60
30021;BME280;16861;52.294;7.760;2023-05-01T11:52:50;99616.22;;;31.12;26.55
30021;BME280;16861;52.294;7.760;2023-05-01T11:55:20;99616.84;;;31.14;25.75
30021;BME280;16861;52.294;7.760;2023-05-01T11:57:56;99616.69;;;31.08;25.10
30021;BME280;16861;52.294;7.760;2023-05-01T12:00:33;99613.66;;;30.98;25.86
30021;BME280;16861;52.294;7.760;2023-05-01T12:03:09;99609.13;;;30.92;25.02
30021;BME280;16861;52.294;7.760;2023-05-01T12:05:41;99615.31;;;30.80;24.93
30021;BME280;16861;52.294;7.760;2023-05-01T12:10:52;99610.75;;;30.55;24.71
30021;BME280;16861;52.294;7.760;2023-05-01T12:13:19;99614.84;;;30.39;25.19
30021;BME280;16861;52.294;7.760;2023-05-01T12:15:48;99610.00;;;30.23;25.19
30021;BME280;16861;52.294;7.760;2023-05-01T12:18:17;99612.38;;;30.06;25.11
30021;BME280;16861;52.294;7.760;2023-05-01T12:20:46;99608.53;;;29.88;25.40
30021;BME280;16861;52.294;7.760;2023-05-01T12:23:14;99613.41;;;29.79;26.67
30021;BME280;16861;52.294;7.760;2023-05-01T12:25:42;99606.06;;;29.80;27.08
30021;BME280;16861;52.294;7.760;2023-05-01T12:28:17;99606.06;;;29.80;25.43
30021;BME280;16861;52.294;7.760;2023-05-01T12:30:46;99599.25;;;29.70;25.29
30021;BME280;16861;52.294;7.760;2023-05-01T12:33:16;99602.09;;;29.43;23.90
30021;BME280;16861;52.294;7.760;2023-05-01T12:35:46;99598.88;;;29.14;25.18
30021;BME280;16861;52.294;7.760;2023-05-01T12:41:00;99597.09;;;28.81;25.65
30021;BME280;16861;52.294;7.760;2023-05-01T12:43:32;99594.16;;;28.75;26.07
30021;BME280;16861;52.294;7.760;2023-05-01T12:46:00;99603.97;;;28.63;25.72
30021;BME280;16861;52.294;7.760;2023-05-01T12:48:28;99590.06;;;28.39;25.70
30021;BME280;16861;52.294;7.760;2023-05-01T12:50:55;99597.09;;;28.13;25.90
30021;BME280;16861;52.294;7.760;2023-05-01T12:53:24;99590.84;;;27.86;25.13
30021;BME280;16861;52.294;7.760;2023-05-01T12:55:53;99594.16;;;27.67;26.76
30021;BME280;16861;52.294;7.760;2023-05-01T12:58:20;99591.19;;;27.62;27.73
30021;BME280;16861;52.294;7.760;2023-05-01T13:00:51;99587.50;;;27.70;27.96
30021;BME280;16861;52.294;7.760;2023-05-01T13:03:24;99592.28;;;27.88;27.72
30021;BME280;16861;52.294;7.760;2023-05-01T13:08:35;99589.38;;;27.90;25.81
30021;BME280;16861;52.294;7.760;2023-05-01T13:11:13;99593.31;;;27.67;25.90
30021;BME280;16861;52.294;7.760;2023-05-01T13:13:45;99584.44;;;27.38;26.25
30021;BME280;16861;52.294;7.760;2023-05-01T13:16:14;99580.19;;;27.08;27.02
30021;BME280;16861;52.294;7.760;2023-05-01T13:18:42;99590.81;;;26.81;27.35
30021;BME280;16861;52.294;7.760;2023-05-01T13:21:11;99588.19;;;26.59;27.79
30021;BME280;16861;52.294;7.760;2023-05-01T13:23:38;99579.75;;;26.40;27.60
30021;BME280;16861;52.294;7.760;2023-05-01T13:26:06;99576.47;;;26.23;27.60
30021;BME280;16861;52.294;7.760;2023-05-01T13:28:35;99583.38;;;26.04;27.61
30021;BME280;16861;52.294;7.760;2023-05-01T13:31:11;99574.25;;;25.83;28.03
30021;BME280;16861;52.294;7.760;2023-05-01T13:33:40;99570.81;;;25.68;27.88
30021;BME280;16861;52.294;7.760;2023-05-01T13:36:09;99569.34;;;25.50;27.75
30021;BME280;16861;52.294;7.760;2023-05-01T13:38:52;99567.25;;;25.30;28.15
30021;BME280;16861;52.294;7.760;2023-05-01T13:41:21;99569.31;;;25.13;28.14
30021;BME280;16861;52.294;7.760;2023-05-01T13:43:48;99568.69;;;24.96;28.50
30021;BME280;16861;52.294;7.760;2023-05-01T13:46:17;99572.72;;;24.77;28.87
30021;BME280;16861;52.294;7.760;2023-05-01T13:48:45;99581.66;;;24.62;29.52
30021;BME280;16861;52.294;7.760;2023-05-01T13:51:20;99579.69;;;24.41;30.62
30021;BME280;16861;52.294;7.760;2023-05-01T13:53:47;99583.16;;;24.26;30.67
30021;BME280;16861;52.294;7.760;2023-05-01T13:56:14;99578.91;;;24.08;30.93